createdAt,value
2023-02-16T00:00:22.610Z,27.50
2023-02-16T00:02:49.499Z,24.60
2023-02-16T00:05:29.665Z,27.15
2023-02-16T00:07:57.972Z,27.50
2023-02-16T00:10:26.585Z,24.92
2023-02-16T00:13:12.478Z,24.52
2023-02-16T00:15:40.253Z,27.00
2023-02-16T00:18:33.540Z,28.20
2023-02-16T00:21:00.305Z,23.25
2023-02-16T00:23:27.088Z,26.10
2023-02-16T00:25:53.860Z,24.30
2023-02-16T00:28:21.214Z,23.88
2023-02-16T00:30:50.197Z,22.92
2023-02-16T00:33:20.365Z,21.80
2023-02-16T00:35:47.785Z,20.25
2023-02-16T00:38:14.712Z,22.30
2023-02-16T00:40:42.851Z,21.20
2023-02-16T00:43:26.378Z,20.65
2023-02-16T00:45:53.720Z,20.92
2023-02-16T00:48:20.877Z,20.45
2023-02-16T00:50:47.739Z,20.85
2023-02-16T00:53:14.840Z,20.77
2023-02-16T00:55:43.124Z,21.02
2023-02-16T00:58:26.677Z,19.63
2023-02-16T01:01:02.351Z,20.35
2023-02-16T01:03:29.882Z,22.80
2023-02-16T01:06:15.214Z,21.45
2023-02-16T01:09:01.377Z,20.90
2023-02-16T01:11:28.894Z,20.17
2023-02-16T01:13:57.030Z,19.92
2023-02-16T01:16:26.776Z,18.88
2023-02-16T01:18:54.380Z,19.33
2023-02-16T01:21:24.444Z,19.30
2023-02-16T01:23:51.237Z,19.73
2023-02-16T01:26:19.590Z,20.23
2023-02-16T01:28:46.856Z,19.00
2023-02-16T01:31:15.306Z,17.75
2023-02-16T01:33:42.907Z,17.52
2023-02-16T01:36:39.822Z,17.05
2023-02-16T01:39:07.895Z,18.67
2023-02-16T01:41:37.640Z,17.95
2023-02-16T01:44:18.286Z,17.05
2023-02-16T01:47:19.216Z,17.75
2023-02-16T01:49:46.000Z,17.80
2023-02-16T01:52:41.374Z,17.67
2023-02-16T01:55:08.181Z,17.15
2023-02-16T01:57:46.544Z,18.63
2023-02-16T02:00:30.124Z,17.77
2023-02-16T02:03:19.852Z,16.55
2023-02-16T02:05:49.162Z,16.83
2023-02-16T02:08:38.186Z,16.20
2023-02-16T02:11:12.035Z,16.50
2023-02-16T02:13:47.486Z,17.95
2023-02-16T02:16:19.264Z,15.93
2023-02-16T02:18:46.165Z,15.75
2023-02-16T02:21:49.386Z,15.65
2023-02-16T02:24:41.320Z,16.35
2023-02-16T02:27:19.977Z,14.75
2023-02-16T02:29:52.668Z,14.35
2023-02-16T02:32:38.556Z,16.27
2023-02-16T02:35:08.519Z,16.38
2023-02-16T02:37:35.265Z,15.07
2023-02-16T02:40:34.132Z,15.48
2023-02-16T02:43:03.861Z,16.48
2023-02-16T02:45:40.903Z,17.33
2023-02-16T02:48:07.715Z,15.60
2023-02-16T02:50:37.276Z,15.90
2023-02-16T02:53:12.054Z,17.30
2023-02-16T02:56:04.837Z,18.20
2023-02-16T02:58:53.549Z,16.85
2023-02-16T03:01:21.307Z,15.80
2023-02-16T03:03:54.806Z,14.63
2023-02-16T03:06:30.034Z,16.48
2023-02-16T03:09:04.526Z,16.60
2023-02-16T03:11:49.796Z,15.02
2023-02-16T03:14:22.322Z,16.83
2023-02-16T03:17:13.781Z,15.63
2023-02-16T03:20:01.552Z,15.40
2023-02-16T03:22:48.376Z,14.70
2023-02-16T03:25:34.492Z,16.33
2023-02-16T03:28:23.495Z,16.60
2023-02-16T03:30:51.652Z,15.85
2023-02-16T03:33:19.202Z,15.07
2023-02-16T03:35:46.663Z,15.82
2023-02-16T03:38:13.918Z,15.60
2023-02-16T03:40:43.100Z,16.73
2023-02-16T03:43:09.959Z,14.85
2023-02-16T03:45:40.243Z,13.75
2023-02-16T03:48:07.744Z,14.10
2023-02-16T03:50:34.997Z,13.60
2023-02-16T03:53:08.163Z,13.93
2023-02-16T03:55:37.997Z,13.10
2023-02-16T03:58:06.539Z,12.77
2023-02-16T04:00:34.975Z,12.45
2023-02-16T04:03:02.857Z,13.02
2023-02-16T04:05:29.830Z,12.38
2023-02-16T04:07:56.590Z,13.75
2023-02-16T04:10:23.675Z,12.43
2023-02-16T04:12:50.877Z,13.52
2023-02-16T04:15:20.796Z,12.68
2023-02-16T04:17:48.091Z,12.43
2023-02-16T04:20:18.003Z,13.50
2023-02-16T04:22:45.952Z,11.90
2023-02-16T04:25:13.337Z,12.70
2023-02-16T04:27:41.236Z,12.40
2023-02-16T04:30:11.886Z,11.55
2023-02-16T04:32:38.963Z,13.07
2023-02-16T04:35:06.347Z,12.98
2023-02-16T04:37:33.273Z,11.98
2023-02-16T04:40:00.259Z,11.95
2023-02-16T04:42:27.048Z,12.35
2023-02-16T04:44:53.799Z,11.95
2023-02-16T04:47:21.882Z,13.23
2023-02-16T04:49:50.333Z,11.77
2023-02-16T04:52:17.723Z,12.18
2023-02-16T04:54:44.569Z,12.13
2023-02-16T04:57:12.575Z,14.15
2023-02-16T04:59:39.343Z,12.18
2023-02-16T05:02:06.134Z,13.18
2023-02-16T05:04:33.338Z,12.20
2023-02-16T05:07:00.218Z,13.63
2023-02-16T05:09:27.006Z,12.18
2023-02-16T05:12:12.226Z,12.88
2023-02-16T05:14:41.946Z,12.43
2023-02-16T05:17:11.363Z,13.35
2023-02-16T05:19:38.278Z,11.68
2023-02-16T05:22:05.209Z,12.48
2023-02-16T05:24:31.988Z,13.23
2023-02-16T05:26:58.797Z,13.60
2023-02-16T05:29:25.552Z,13.05
2023-02-16T05:31:52.642Z,11.30
2023-02-16T05:34:19.637Z,12.23
2023-02-16T05:36:46.483Z,12.15
2023-02-16T05:39:13.305Z,12.73
2023-02-16T05:41:40.182Z,12.57
2023-02-16T05:44:07.792Z,11.88
2023-02-16T05:46:37.336Z,11.68
2023-02-16T05:49:05.322Z,12.10
2023-02-16T05:51:32.229Z,11.55
2023-02-16T05:53:59.346Z,11.45
2023-02-16T05:56:26.821Z,11.18
2023-02-16T05:58:53.909Z,11.65
2023-02-16T06:01:21.055Z,11.65
2023-02-16T06:03:48.212Z,12.43
2023-02-16T06:06:15.103Z,11.32
2023-02-16T06:08:41.930Z,10.52
2023-02-16T06:11:28.690Z,12.05
2023-02-16T06:13:59.501Z,12.75
2023-02-16T06:16:28.030Z,12.15
2023-02-16T06:18:55.316Z,10.90
2023-02-16T06:21:22.993Z,11.93
2023-02-16T06:23:49.927Z,12.13
2023-02-16T06:26:17.303Z,11.70
2023-02-16T06:28:44.152Z,10.80
2023-02-16T06:31:11.470Z,11.48
2023-02-16T06:33:38.576Z,11.98
2023-02-16T06:36:06.014Z,12.45
2023-02-16T06:38:32.867Z,12.45
2023-02-16T06:40:59.672Z,10.77
2023-02-16T06:43:26.541Z,11.65
2023-02-16T06:45:53.306Z,11.73
2023-02-16T06:48:20.142Z,11.98
2023-02-16T06:50:46.960Z,11.40
2023-02-16T06:53:13.925Z,10.98
2023-02-16T06:55:40.770Z,11.73
2023-02-16T06:58:08.250Z,11.98
2023-02-16T07:00:35.150Z,13.07
2023-02-16T07:03:02.699Z,13.05
2023-02-16T07:05:29.683Z,13.02
2023-02-16T07:07:56.494Z,14.55
2023-02-16T07:10:23.415Z,11.77
2023-02-16T07:12:50.325Z,13.70
2023-02-16T07:15:17.414Z,14.30
2023-02-16T07:17:44.218Z,11.80
2023-02-16T07:20:12.762Z,11.70
2023-02-16T07:22:39.910Z,12.27
2023-02-16T07:25:07.199Z,12.25
2023-02-16T07:27:34.020Z,12.65
2023-02-16T07:30:01.015Z,12.02
2023-02-16T07:32:29.739Z,11.98
2023-02-16T07:34:56.629Z,11.73
2023-02-16T07:37:23.883Z,10.93
2023-02-16T07:39:50.723Z,11.38
2023-02-16T07:42:17.694Z,12.43
2023-02-16T07:44:44.513Z,11.48
2023-02-16T07:47:13.434Z,11.95
2023-02-16T07:49:42.613Z,11.00
2023-02-16T07:52:09.423Z,11.05
2023-02-16T07:54:40.552Z,10.95
2023-02-16T07:57:07.657Z,11.45
2023-02-16T07:59:34.957Z,11.95
2023-02-16T08:02:01.942Z,11.18
2023-02-16T08:04:28.828Z,11.48
2023-02-16T08:06:55.626Z,9.98
2023-02-16T08:09:22.550Z,10.23
2023-02-16T08:11:49.372Z,10.03
2023-02-16T08:14:16.640Z,9.90
2023-02-16T08:16:43.707Z,10.60
2023-02-16T08:19:13.172Z,9.55
2023-02-16T08:21:40.034Z,10.60
2023-02-16T08:24:08.654Z,9.87
2023-02-16T08:26:41.448Z,12.80
2023-02-16T08:29:13.307Z,11.53
2023-02-16T08:31:40.332Z,12.40
2023-02-16T08:34:07.983Z,11.73
2023-02-16T08:36:38.625Z,11.63
2023-02-16T08:39:08.879Z,12.23
2023-02-16T08:41:37.157Z,12.83
2023-02-16T08:44:06.133Z,12.60
2023-02-16T08:46:34.926Z,12.70
2023-02-16T08:49:02.213Z,13.00
2023-02-16T08:51:32.144Z,12.27
2023-02-16T08:54:00.286Z,14.07
2023-02-16T08:56:29.712Z,13.03
2023-02-16T08:58:57.414Z,12.90
2023-02-16T09:01:24.388Z,13.70
2023-02-16T09:03:52.006Z,11.60
2023-02-16T09:06:21.490Z,13.10
2023-02-16T09:08:56.295Z,11.73
2023-02-16T09:11:24.594Z,11.17
2023-02-16T09:13:51.944Z,11.37
2023-02-16T09:16:22.633Z,11.20
2023-02-16T09:18:50.887Z,11.33
2023-02-16T09:21:19.788Z,10.00
2023-02-16T09:23:48.431Z,10.10
2023-02-16T09:26:17.753Z,9.83
2023-02-16T09:28:45.896Z,9.07
2023-02-16T09:31:25.859Z,8.90
2023-02-16T09:33:56.218Z,7.80
2023-02-16T09:36:23.795Z,8.33
2023-02-16T09:38:51.457Z,8.80
2023-02-16T09:41:26.160Z,9.20
2023-02-16T09:44:13.305Z,8.77
2023-02-16T09:46:42.835Z,9.37
2023-02-16T09:49:25.230Z,9.90
2023-02-16T09:52:23.144Z,9.57
2023-02-16T09:54:57.717Z,9.53
2023-02-16T09:57:46.262Z,9.90
2023-02-16T10:00:34.324Z,10.00
2023-02-16T10:03:27.261Z,9.30
2023-02-16T10:06:18.625Z,10.20
2023-02-16T10:09:07.601Z,10.10
2023-02-16T10:11:46.864Z,10.00
2023-02-16T10:14:31.941Z,10.40
2023-02-16T10:17:06.734Z,11.10
2023-02-16T10:19:47.499Z,9.53
2023-02-16T10:22:18.192Z,9.60
2023-02-16T10:25:09.946Z,9.43
2023-02-16T10:27:42.370Z,9.70
2023-02-16T10:30:19.978Z,9.03
2023-02-16T10:33:14.395Z,9.10
2023-02-16T10:35:58.539Z,9.40
2023-02-16T10:38:32.130Z,9.63
2023-02-16T10:41:04.647Z,10.73
2023-02-16T10:43:43.871Z,9.03
2023-02-16T10:46:23.912Z,8.97
2023-02-16T10:48:55.154Z,8.60
2023-02-16T10:51:28.079Z,7.20
2023-02-16T10:54:05.819Z,8.83
2023-02-16T10:56:59.842Z,7.80
2023-02-16T10:59:38.685Z,8.10
2023-02-16T11:02:24.785Z,8.13
2023-02-16T11:04:53.760Z,8.90
2023-02-16T11:07:27.066Z,8.90
2023-02-16T11:09:55.941Z,9.07
2023-02-16T11:12:30.981Z,8.63
2023-02-16T11:15:19.811Z,7.80
2023-02-16T11:18:00.128Z,7.47
2023-02-16T11:20:46.645Z,7.87
2023-02-16T11:23:37.353Z,8.20
2023-02-16T11:26:12.203Z,7.97
2023-02-16T11:28:45.291Z,7.70
2023-02-16T11:31:32.270Z,7.83
2023-02-16T11:34:40.844Z,7.40
2023-02-16T11:37:22.506Z,6.70
2023-02-16T11:39:53.988Z,6.30
2023-02-16T11:42:54.022Z,6.70
2023-02-16T11:45:32.988Z,6.90
2023-02-16T11:48:14.094Z,7.30
2023-02-16T11:50:56.740Z,5.93
2023-02-16T11:53:35.914Z,7.40
2023-02-16T11:56:27.471Z,6.63
2023-02-16T11:59:08.527Z,7.47
2023-02-16T12:02:09.286Z,6.50
2023-02-16T12:04:51.129Z,6.87
2023-02-16T12:07:42.203Z,6.07
2023-02-16T12:10:26.107Z,6.23
2023-02-16T12:13:17.397Z,6.13
2023-02-16T12:16:00.066Z,5.40
2023-02-16T12:18:32.509Z,6.17
2023-02-16T12:21:28.285Z,5.87
2023-02-16T12:24:09.405Z,5.80
2023-02-16T12:26:53.813Z,5.63
2023-02-16T12:29:35.732Z,5.40
2023-02-16T12:32:33.144Z,4.40
2023-02-16T12:35:14.887Z,4.43
2023-02-16T12:38:09.008Z,5.53
2023-02-16T12:41:15.550Z,5.00
2023-02-16T12:43:46.992Z,4.60
2023-02-16T12:46:19.751Z,4.80
2023-02-16T12:48:57.412Z,5.40
2023-02-16T12:51:30.903Z,4.67
2023-02-16T12:53:57.785Z,5.03
2023-02-16T12:56:39.242Z,5.10
2023-02-16T12:59:14.428Z,5.33
2023-02-16T13:01:42.384Z,4.90
2023-02-16T13:04:27.145Z,4.80
2023-02-16T13:07:26.444Z,4.80
2023-02-16T13:10:23.679Z,4.67
2023-02-16T13:13:06.733Z,4.70
2023-02-16T13:15:53.037Z,4.70
2023-02-16T13:18:21.583Z,4.67
2023-02-16T13:20:56.641Z,4.87
2023-02-16T13:23:26.391Z,4.63
2023-02-16T13:26:14.917Z,4.93
2023-02-16T13:29:02.336Z,4.90
2023-02-16T13:31:53.655Z,4.80
2023-02-16T13:34:35.772Z,4.90
2023-02-16T13:37:31.505Z,4.10
2023-02-16T13:40:27.255Z,4.80
2023-02-16T13:43:12.421Z,4.50
2023-02-16T13:45:42.733Z,5.00
2023-02-16T13:48:33.424Z,5.37
2023-02-16T13:51:07.003Z,4.87
2023-02-16T13:53:38.733Z,5.20
2023-02-16T13:56:24.354Z,5.03
2023-02-16T13:58:52.974Z,4.90
2023-02-16T14:01:31.893Z,5.20
2023-02-16T14:04:02.891Z,5.50
2023-02-16T14:06:37.825Z,5.63
2023-02-16T14:09:11.156Z,4.50
2023-02-16T14:12:02.213Z,5.10
2023-02-16T14:14:47.985Z,5.50
2023-02-16T14:17:21.906Z,5.40
2023-02-16T14:20:09.103Z,5.07
2023-02-16T14:23:00.193Z,5.10
2023-02-16T14:25:37.241Z,5.70
2023-02-16T14:28:19.293Z,5.30
2023-02-16T14:30:51.140Z,4.57
2023-02-16T14:33:39.943Z,5.40
2023-02-16T14:36:12.626Z,4.73
2023-02-16T14:38:44.153Z,4.23
2023-02-16T14:41:32.818Z,4.97
2023-02-16T14:43:59.546Z,5.07
2023-02-16T14:46:50.761Z,5.00
2023-02-16T14:49:51.009Z,4.70
2023-02-16T14:52:37.346Z,5.27
2023-02-16T14:55:36.447Z,5.50
2023-02-16T14:58:16.026Z,4.83
2023-02-16T15:00:58.357Z,5.43
2023-02-16T15:03:26.530Z,5.93
2023-02-16T15:05:59.242Z,5.90
2023-02-16T15:08:34.898Z,6.17
2023-02-16T15:11:29.866Z,5.80
2023-02-16T15:14:07.996Z,5.90
2023-02-16T15:16:37.929Z,5.87
2023-02-16T15:19:11.044Z,5.97
2023-02-16T15:21:37.986Z,5.53
2023-02-16T15:24:06.052Z,5.13
2023-02-16T15:26:35.735Z,5.43
2023-02-16T15:29:16.599Z,5.40
2023-02-16T15:31:44.221Z,5.70
2023-02-16T15:34:26.331Z,5.80
2023-02-16T15:36:53.132Z,5.67
2023-02-16T15:39:38.462Z,4.80
2023-02-16T15:42:21.598Z,5.53
2023-02-16T15:44:49.122Z,5.10
2023-02-16T15:47:21.507Z,5.43
2023-02-16T15:49:48.652Z,6.00
2023-02-16T15:52:33.599Z,5.70
2023-02-16T15:55:03.286Z,5.40
2023-02-16T15:57:32.630Z,5.57
2023-02-16T16:00:23.227Z,5.80
2023-02-16T16:02:52.918Z,5.80
2023-02-16T16:05:36.268Z,5.57
2023-02-16T16:08:03.999Z,5.63
2023-02-16T16:10:36.879Z,5.30
2023-02-16T16:13:06.749Z,5.20
2023-02-16T16:15:43.923Z,5.93
2023-02-16T16:18:40.301Z,5.57
2023-02-16T16:21:23.662Z,5.20
2023-02-16T16:24:00.006Z,5.37
2023-02-16T16:26:29.554Z,5.80
2023-02-16T16:28:56.995Z,5.20
2023-02-16T16:31:23.833Z,4.40
2023-02-16T16:33:57.216Z,5.17
2023-02-16T16:36:35.002Z,5.67
2023-02-16T16:39:17.189Z,4.77
2023-02-16T16:42:20.434Z,5.93
2023-02-16T16:44:56.857Z,5.80
2023-02-16T16:47:36.789Z,6.00
2023-02-16T16:50:26.654Z,6.40
2023-02-16T16:52:55.059Z,6.17
2023-02-16T16:55:27.144Z,5.90
2023-02-16T16:58:00.136Z,5.60
2023-02-16T17:00:34.617Z,5.33
2023-02-16T17:03:02.961Z,5.73
2023-02-16T17:05:29.832Z,6.63
2023-02-16T17:07:56.694Z,5.57
2023-02-16T17:10:24.456Z,5.80
2023-02-16T17:12:54.768Z,5.72
2023-02-16T17:15:36.510Z,5.70
2023-02-16T17:18:04.235Z,6.07
2023-02-16T17:20:31.173Z,6.30
2023-02-16T17:23:04.385Z,6.65
2023-02-16T17:25:33.075Z,6.23
2023-02-16T17:28:00.514Z,6.40
2023-02-16T17:30:27.570Z,5.95
2023-02-16T17:32:54.383Z,6.13
2023-02-16T17:35:21.279Z,6.38
2023-02-16T17:37:48.241Z,6.55
2023-02-16T17:40:20.935Z,7.82
2023-02-16T17:42:49.631Z,6.72
2023-02-16T17:45:18.576Z,7.32
2023-02-16T17:47:46.078Z,7.45
2023-02-16T17:50:15.064Z,7.15
2023-02-16T17:52:43.699Z,6.88
2023-02-16T17:55:11.685Z,6.93
2023-02-16T17:57:39.139Z,7.07
2023-02-16T18:00:13.152Z,6.72
2023-02-16T18:02:39.914Z,6.85
2023-02-16T18:05:07.127Z,6.65
2023-02-16T18:07:33.975Z,6.65
2023-02-16T18:10:00.752Z,6.15
2023-02-16T18:12:28.588Z,6.80
2023-02-16T18:14:55.400Z,6.60
2023-02-16T18:17:22.240Z,7.00
2023-02-16T18:19:49.011Z,6.22
2023-02-16T18:22:15.863Z,6.63
2023-02-16T18:24:44.393Z,6.80
2023-02-16T18:27:11.214Z,5.50
2023-02-16T18:29:38.068Z,6.80
2023-02-16T18:32:05.269Z,7.03
2023-02-16T18:34:33.400Z,6.60
2023-02-16T18:37:00.359Z,6.50
2023-02-16T18:39:27.172Z,6.40
2023-02-16T18:41:53.974Z,6.35
2023-02-16T18:44:20.718Z,6.93
2023-02-16T18:46:47.536Z,6.45
2023-02-16T18:49:14.364Z,7.03
2023-02-16T18:51:41.127Z,6.80
2023-02-16T18:54:07.983Z,6.80
2023-02-16T18:56:36.554Z,7.10
2023-02-16T18:59:04.238Z,7.18
2023-02-16T19:01:33.272Z,6.75
2023-02-16T19:04:01.466Z,6.90
2023-02-16T19:06:28.736Z,6.80
2023-02-16T19:08:56.444Z,6.38
2023-02-16T19:11:23.259Z,7.40
2023-02-16T19:13:50.271Z,6.53
2023-02-16T19:16:17.753Z,6.90
2023-02-16T19:18:44.651Z,6.35
2023-02-16T19:21:14.108Z,6.53
2023-02-16T19:23:41.308Z,6.53
2023-02-16T19:26:13.146Z,7.30
2023-02-16T19:28:41.437Z,7.07
2023-02-16T19:31:15.498Z,7.43
2023-02-16T19:33:42.369Z,6.80
2023-02-16T19:36:10.912Z,7.78
2023-02-16T19:38:38.311Z,7.60
2023-02-16T19:41:13.940Z,7.32
2023-02-16T19:43:42.015Z,7.82
2023-02-16T19:46:10.654Z,7.65
2023-02-16T19:48:38.172Z,7.60
2023-02-16T19:51:06.521Z,7.95
2023-02-16T19:53:33.987Z,7.70
2023-02-16T19:56:03.409Z,7.65
2023-02-16T19:58:30.276Z,7.65
2023-02-16T20:00:57.076Z,9.15
2023-02-16T20:03:23.904Z,8.65
2023-02-16T20:05:50.659Z,7.90
2023-02-16T20:08:17.459Z,7.20
2023-02-16T20:10:45.050Z,7.68
2023-02-16T20:13:11.797Z,7.35
2023-02-16T20:15:38.673Z,7.80
2023-02-16T20:18:07.321Z,7.13
2023-02-16T20:20:35.476Z,7.15
2023-02-16T20:23:02.244Z,7.20
2023-02-16T20:25:29.057Z,6.20
2023-02-16T20:27:56.631Z,6.93
2023-02-16T20:30:25.362Z,7.05
2023-02-16T20:32:52.259Z,6.90
2023-02-16T20:35:19.262Z,7.40
2023-02-16T20:37:46.097Z,6.63
2023-02-16T20:40:13.379Z,7.28
2023-02-16T20:42:40.159Z,6.45
2023-02-16T20:45:07.506Z,7.35
2023-02-16T20:47:34.434Z,7.03
2023-02-16T20:50:01.254Z,6.40
2023-02-16T20:52:28.086Z,6.82
2023-02-16T20:54:54.883Z,6.60
2023-02-16T20:57:27.182Z,6.60
2023-02-16T20:59:55.379Z,7.50
2023-02-16T21:02:22.369Z,6.38
2023-02-16T21:04:49.230Z,7.20
2023-02-16T21:07:16.028Z,6.45
2023-02-16T21:09:42.912Z,6.72
2023-02-16T21:12:09.810Z,6.47
2023-02-16T21:14:36.632Z,6.00
2023-02-16T21:17:03.490Z,6.60
2023-02-16T21:19:30.549Z,7.28
2023-02-16T21:21:57.352Z,7.32
2023-02-16T21:24:24.340Z,6.82
2023-02-16T21:26:51.141Z,6.43
2023-02-16T21:29:17.974Z,6.32
2023-02-16T21:31:44.839Z,6.75
2023-02-16T21:34:11.930Z,6.00
2023-02-16T21:36:38.940Z,6.22
2023-02-16T21:39:06.019Z,6.50
2023-02-16T21:41:33.208Z,6.40
2023-02-16T21:44:09.266Z,6.43
2023-02-16T21:46:38.033Z,6.28
2023-02-16T21:49:07.344Z,5.72
2023-02-16T21:51:39.708Z,5.63
2023-02-16T21:54:08.370Z,5.30
2023-02-16T21:56:39.348Z,6.45
2023-02-16T21:59:08.922Z,5.68
2023-02-16T22:01:39.482Z,5.60
2023-02-16T22:04:06.672Z,5.10
2023-02-16T22:06:39.743Z,5.45
2023-02-16T22:09:11.973Z,5.80
2023-02-16T22:11:39.217Z,5.45
2023-02-16T22:14:06.826Z,6.35
2023-02-16T22:16:36.246Z,5.75
2023-02-16T22:19:07.443Z,5.85
2023-02-16T22:21:39.588Z,5.32
2023-02-16T22:24:07.393Z,5.40
2023-02-16T22:26:35.762Z,5.40
2023-02-16T22:29:07.379Z,5.72
2023-02-16T22:31:35.030Z,4.93
2023-02-16T22:34:07.867Z,5.60
2023-02-16T22:36:36.620Z,5.82
2023-02-16T22:39:04.475Z,4.90
2023-02-16T22:41:31.461Z,5.70
2023-02-16T22:44:01.655Z,5.75
2023-02-16T22:46:29.721Z,5.35
2023-02-16T22:49:00.944Z,6.10
2023-02-16T22:51:29.846Z,5.40
2023-02-16T22:53:59.076Z,5.00
2023-02-16T22:56:27.084Z,5.00
2023-02-16T22:58:57.343Z,5.50
2023-02-16T23:01:25.366Z,5.03
2023-02-16T23:03:56.666Z,5.68
2023-02-16T23:06:29.355Z,5.45
2023-02-16T23:08:59.745Z,5.78
2023-02-16T23:11:27.103Z,6.07
2023-02-16T23:13:53.915Z,6.55
2023-02-16T23:16:23.103Z,6.20
2023-02-16T23:18:50.862Z,5.70
2023-02-16T23:21:22.763Z,6.15
2023-02-16T23:23:50.867Z,5.53
2023-02-16T23:26:19.759Z,5.65
2023-02-16T23:28:51.115Z,5.55
2023-02-16T23:31:18.736Z,5.43
2023-02-16T23:33:45.628Z,5.60
2023-02-16T23:36:12.474Z,6.18
2023-02-16T23:38:39.375Z,6.07
2023-02-16T23:41:12.291Z,6.50
2023-02-16T23:43:39.424Z,6.00
2023-02-16T23:46:07.381Z,6.00
2023-02-16T23:48:34.725Z,6.63
2023-02-16T23:51:01.952Z,5.97
2023-02-16T23:53:29.273Z,6.70
2023-02-16T23:56:14.849Z,6.55
2023-02-16T23:58:43.068Z,5.65
